• Join FlightAware (Why Join?)
  • Login
  • US Flag 
12:40PM EDT


 

Airport Tracker/Info


-or-


 

Live Flight TrackerFlight Track Log ✈ N101MA ✈ 06-Jul-2013 ✈ KTEB - KORF

Flight Track Log - Related Links

Times and Time Zones

All times are in EDT time to prevent confusion due to time zone crossing. See the N101MA flight status page for this flight to view local times or setup timezone preferences in your user account.

Time Position Orientation Groundspeed Altitude Reporting Facility
EDT Latitude Longitude Course Direction KTS MPH feet Rate Location/Type
02:06PM 40.8333 -74.1167 237° Southwest 107 123 1,400  Level New York TRACON
02:07PM 40.8167 -74.1500 237° Southwest 115 132 2,000 600 Climbing New York TRACON
02:08PM 40.7833 -74.1833 217° Southwest 113 130 2,700 660 Climbing New York TRACON
02:09PM 40.7667 -74.2000 217° Southwest 120 138 3,400 720 Climbing New York TRACON
02:10PM 40.7333 -74.2167 201° Southwest 118 136 4,200 840 Climbing New York TRACON
02:11PM 40.7000 -74.2333 201° Southwest 122 140 5,100 780 Climbing New York TRACON
02:12PM 40.6667 -74.2333 180° South 128 147 5,800 480 Climbing New York TRACON
02:13PM 40.6333 -74.2500 201° Southwest 126 145 6,100 120 Climbing New York TRACON
02:14PM 40.6000 -74.2667 201° Southwest 162 186 6,100  Level New York TRACON
02:15PM 40.5500 -74.2833 194° South 163 188 6,100  Level New York TRACON
02:17PM 40.4912 -74.3159 159° South  Level Estimated
02:24PM 40.2104 -74.4708 180° South  Level Estimated
02:25PM 40.1904 -74.4202 117° Southeast  Level FlightAware Approximate
02:26PM 40.1704 -74.3696 117° Southeast  Level FlightAware Approximate
02:27PM 40.1307 -74.3929 223° Southwest  Level Estimated
02:28PM 40.0974 -74.3564 140° Southeast  Level FlightAware Approximate
02:29PM 40.0640 -74.3199 140° Southeast  Level FlightAware Approximate
02:30PM 40.0247 -74.3444 215° Southwest  Level Estimated
02:31PM 39.9827 -74.3590 195° South  Level FlightAware Approximate
02:32PM 39.9407 -74.3736 195° South  Level FlightAware Approximate
02:33PM 39.8986 -74.3882 195° South  Level FlightAware Approximate
02:34PM 39.8566 -74.4028 195° South  Level FlightAware Approximate
02:34PM 39.7256 -74.5258 220° Southwest 159 183 6,500  Level Washington Center
02:35PM 39.8175 -74.4277 214° Southwest  Level Estimated
02:36PM 39.6842 -74.5573 210° Southwest  Level FlightAware Approximate
02:36PM 39.7805 -74.4577 212° Southwest  Level FlightAware Approximate
02:37PM 39.7436 -74.4877 212° Southwest  Level FlightAware Approximate
02:38PM 39.7067 -74.5176 212° Southwest  Level FlightAware Approximate
02:38PM 39.6117 -74.6111 216° Southwest 165 190 7,100  Level Washington Center
02:39PM 39.6675 -74.5421 218° Southwest  Level Estimated
02:40PM 39.6343 -74.5787 220° Southwest  Level FlightAware Approximate
02:41PM 39.4975 -74.6961 210° Southwest 169 194 7,100  Level Washington Center
02:42PM 39.4583 -74.7233 208° Southwest 169 194 7,400 420 Climbing Washington Center
02:43PM 39.4322 -74.7801 216° Southwest  Level FlightAware Approximate
02:43PM 39.4272 -74.7506 214° Southwest 155 178 8,000  Level Washington Center
02:44PM 39.3919 -74.7778 211° Southwest 150 173 8,000  Level Washington Center
02:45PM 39.3525 -74.8053 208° Southwest 155 178 8,000  Level Washington Center
02:46PM 39.3131 -74.8378 213° Southwest 166 191 8,000  Level Washington Center
02:47PM 39.2736 -74.8650 208° Southwest 166 191 8,000  Level Washington Center
02:48PM 39.2342 -74.8975 213° Southwest 166 191 8,000  Level Washington Center
02:49PM 39.1947 -74.9275 211° Southwest 166 191 8,000  Level Washington Center
02:50PM 39.1556 -74.9572 210° Southwest 166 191 8,000  Level Washington Center
02:51PM 39.1139 -74.9869 209° Southwest 166 191 8,000  Level Washington Center
02:52PM 39.0744 -75.0167 210° Southwest 166 191 8,000  Level Washington Center
02:53PM 39.0350 -75.0492 213° Southwest 166 191 8,000  Level Washington Center
02:54PM 38.9956 -75.0761 208° Southwest 166 191 8,000  Level Washington Center
02:55PM 38.9561 -75.1058 210° Southwest 166 191 8,000  Level Washington Center
02:56PM 38.9167 -75.1353 210° Southwest 166 191 8,000  Level Washington Center
02:57PM 38.8769 -75.1650 210° Southwest 166 191 8,000  Level Washington Center
02:58PM 38.8375 -75.1944 210° Southwest 166 191 8,000  Level Washington Center
02:59PM 38.7981 -75.2214 208° Southwest 166 191 8,000  Level Washington Center
03:00PM 38.7544 -75.2508 208° Southwest 166 191 8,000  Level Washington Center
03:01PM 38.7147 -75.2750 205° Southwest 166 191 8,000  Level Washington Center
03:02PM 38.6731 -75.3044 209° Southwest 166 191 8,000  Level Washington Center
03:03PM 38.6317 -75.3314 207° Southwest 166 191 8,000  Level Washington Center
03:04PM 38.5900 -75.3581 207° Southwest 166 191 8,000  Level Washington Center
03:05PM 38.5503 -75.3847 208° Southwest 166 191 8,000  Level Washington Center
03:06PM 38.5086 -75.4086 204° Southwest 166 191 8,000  Level Washington Center
03:07PM 38.4669 -75.4325 204° Southwest 166 191 8,000  Level Washington Center
03:08PM 38.4253 -75.4592 207° Southwest 166 191 8,000  Level Washington Center
03:09PM 38.3858 -75.4858 208° Southwest 166 191 8,000  Level Washington Center
03:10PM 38.3483 -75.5122 209° Southwest 166 191 8,000  Level Washington Center
03:11PM 38.3003 -75.5389 204° Southwest 166 191 8,000  Level Washington Center
03:12PM 38.2608 -75.5653 208° Southwest 172 198 8,000  Level Washington Center
03:13PM 38.2189 -75.5892 204° Southwest 177 204 8,000  Level Washington Center
03:14PM 38.1814 -75.6156 209° Southwest 177 204 8,000  Level Washington Center
03:15PM 38.1336 -75.6419 203° Southwest 177 204 8,000  Level Washington Center
03:16PM 38.0939 -75.6683 208° Southwest 177 204 8,000  Level Washington Center
03:17PM 38.0522 -75.6947 207° Southwest 177 204 8,000  Level Washington Center
03:18PM 38.0167 -75.7183 208° Southwest 177 204 8,000  Level Washington Center
03:19PM 37.9769 -75.7472 210° Southwest 172 198 8,000  Level Washington Center
03:20PM 37.9353 -75.7708 204° Southwest 172 198 8,000  Level Washington Center
03:21PM 37.8936 -75.7917 202° Southwest 172 198 8,000  Level Washington Center
03:22PM 37.8517 -75.8153 204° Southwest 172 198 8,000  Level Washington Center
03:23PM 37.8058 -75.8442 206° Southwest 172 198 8,000  Level Washington Center
03:24PM 37.7703 -75.8781 217° Southwest 172 198 8,000  Level Washington Center
03:24PM 37.7453 -75.8858 194° South 165 190 8,000  Level Washington Center
03:25PM 37.7306 -75.8936 203° Southwest 172 198 8,000  Level Washington Center
03:25PM 37.7036 -75.9119 208° Southwest 166 191 8,000  Level Washington Center
03:26PM 37.6889 -75.9250 215° Southwest 172 198 8,000  Level Washington Center
03:26PM 37.6617 -75.9356 197° South 165 190 8,000  Level Washington Center
03:27PM 37.6472 -75.9433 203° Southwest 172 198 8,000  Level Washington Center
03:27PM 37.6200 -75.9614 208° Southwest 166 191 8,000 -600 Level Washington Center
03:28PM 37.5719 -75.9875 203° Southwest 186 214 7,100 -720 Descending Washington Center
03:29PM 37.5114 -76.0003 190° South 197 227 6,500 -660 Descending Washington Center
03:30PM 37.4572 -76.0025 182° South 193 222 5,800 -600 Descending Washington Center
03:31PM 37.4050 -76.0075 184° South 190 219 5,300 -660 Descending Washington Center
03:32PM 37.3589 -76.0178 190° South 186 214 4,600 -720 Descending Washington Center
03:33PM 37.3069 -76.0253 187° South 187 215 4,000 -360 Descending Washington Center
03:34PM 37.2506 -76.0275 182° South 169 194 3,900  Descending Washington Center
03:35PM 37.2086 -76.0378 191° South 158 182 4,000 -60 Climbing Washington Center
03:36PM 37.1628 -76.0428 185° South 157 181 3,800 -600 Descending Washington Center
03:37PM 37.1147 -76.0503 187° South 180 207 2,900 -780 Descending Washington Center
03:38PM 37.0647 -76.0603 189° South 179 206 2,300 -600 Descending Washington Center
03:39PM 37.0208 -76.0836 203° Southwest 176 203 1,700 -480 Descending Washington Center
03:40PM 36.9831 -76.1144 213° Southwest 168 193 1,400 -360 Descending Washington Center
03:41PM 36.9475 -76.1506 219° Southwest 158 182 1,100 -420 Descending Washington Center
03:42PM 36.9203 -76.1764 217° Southwest 109 125 600 -540 Descending Washington Center
03:44PM 36.8946 -76.2012 198° South  Level Estimated